createdAt,value
2022-09-01T00:01:57.866Z,68.26
2022-09-01T00:05:00.920Z,68.56
2022-09-01T00:08:05.129Z,73.85
2022-09-01T00:11:08.142Z,71.30
2022-09-01T00:14:30.739Z,75.38
2022-09-01T00:17:34.475Z,73.75
2022-09-01T00:20:37.221Z,74.93
2022-09-01T00:23:41.088Z,74.33
2022-09-01T00:26:44.676Z,77.50
2022-09-01T00:29:47.585Z,75.92
2022-09-01T00:32:50.256Z,76.48
2022-09-01T00:35:53.181Z,77.16
2022-09-01T00:38:57.450Z,79.99
2022-09-01T00:42:00.762Z,80.76
2022-09-01T00:45:04.809Z,79.58
2022-09-01T00:48:07.841Z,80.26
2022-09-01T00:51:12.910Z,80.60
2022-09-01T00:54:21.284Z,84.51
2022-09-01T00:57:24.985Z,86.75
2022-09-01T01:00:31.366Z,92.09
2022-09-01T01:03:35.134Z,94.30
2022-09-01T01:06:39.366Z,99.86
2022-09-01T01:09:46.129Z,95.70
2022-09-01T01:12:51.712Z,98.53
2022-09-01T01:15:54.554Z,95.01
2022-09-01T01:19:01.351Z,100.00
2022-09-01T01:22:26.921Z,100.00
2022-09-01T01:25:35.132Z,100.00
2022-09-01T01:28:41.244Z,100.00
2022-09-01T01:31:45.185Z,100.00
2022-09-01T01:34:48.800Z,95.19
2022-09-01T01:37:52.001Z,94.15
2022-09-01T01:40:56.344Z,94.12
2022-09-01T01:44:04.361Z,98.41
2022-09-01T01:47:13.047Z,100.00
2022-09-01T01:50:16.047Z,100.00
2022-09-01T01:53:23.844Z,99.69
2022-09-01T01:56:28.096Z,100.00
2022-09-01T01:59:31.236Z,92.54
2022-09-01T02:02:34.278Z,92.89
2022-09-01T02:05:37.466Z,93.77
2022-09-01T02:08:40.874Z,93.81
2022-09-01T02:11:45.642Z,93.39
2022-09-01T02:14:51.152Z,92.32
2022-09-01T02:18:00.791Z,94.25
2022-09-01T02:21:16.360Z,94.41
2022-09-01T02:24:21.705Z,94.33
2022-09-01T02:27:26.980Z,94.19
2022-09-01T02:30:33.051Z,93.14
2022-09-01T02:33:37.381Z,93.43
2022-09-01T02:36:49.871Z,93.88
2022-09-01T02:39:53.820Z,93.33
2022-09-01T02:43:01.029Z,90.81
2022-09-01T02:46:04.099Z,89.41
2022-09-01T02:49:17.570Z,89.12
2022-09-01T02:52:23.001Z,90.85
2022-09-01T02:55:26.083Z,89.18
2022-09-01T02:58:33.012Z,90.86
2022-09-01T03:01:36.564Z,90.04
2022-09-01T03:04:40.417Z,87.48
2022-09-01T03:07:45.791Z,89.88
2022-09-01T03:10:49.929Z,90.34
2022-09-01T03:13:53.982Z,88.87
2022-09-01T03:16:57.701Z,88.74
2022-09-01T03:20:00.682Z,92.70
2022-09-01T03:23:07.985Z,92.72
2022-09-01T03:26:11.065Z,93.25
2022-09-01T03:29:15.661Z,96.00
2022-09-01T03:32:19.237Z,92.09
2022-09-01T03:35:22.438Z,91.21
2022-09-01T03:38:26.646Z,92.86
2022-09-01T03:41:31.089Z,94.15
2022-09-01T03:44:40.318Z,90.74
2022-09-01T03:47:47.979Z,90.26
2022-09-01T03:50:51.040Z,93.59
2022-09-01T03:53:59.038Z,92.86
2022-09-01T03:57:06.332Z,94.06
2022-09-01T04:00:13.838Z,93.50
2022-09-01T04:03:28.714Z,93.00
2022-09-01T04:06:34.252Z,94.13
2022-09-01T04:09:37.341Z,95.73
2022-09-01T04:12:40.413Z,93.35
2022-09-01T04:15:43.228Z,99.14
2022-09-01T04:18:49.023Z,99.16
2022-09-01T04:22:01.492Z,98.60
2022-09-01T04:25:06.769Z,96.47
2022-09-01T04:28:23.115Z,92.64
2022-09-01T04:31:26.682Z,89.31
2022-09-01T04:34:37.397Z,91.00
2022-09-01T04:37:40.530Z,91.17
2022-09-01T04:40:44.136Z,91.42
2022-09-01T04:43:52.144Z,91.69
2022-09-01T04:46:56.792Z,93.49
2022-09-01T04:50:00.532Z,94.88
2022-09-01T04:53:06.292Z,95.77
2022-09-01T04:56:11.830Z,95.78
2022-09-01T04:59:15.973Z,95.37
2022-09-01T05:02:19.876Z,96.94
2022-09-01T05:05:23.629Z,95.21
2022-09-01T05:08:26.861Z,98.80
2022-09-01T05:11:29.685Z,99.56
2022-09-01T05:14:35.426Z,100.00
2022-09-01T05:17:39.806Z,100.00
2022-09-01T05:20:43.637Z,100.00
2022-09-01T05:23:47.086Z,100.00
2022-09-01T05:26:50.933Z,100.00
2022-09-01T05:29:54.249Z,100.00
2022-09-01T05:32:57.951Z,98.89
2022-09-01T05:36:02.259Z,96.00
2022-09-01T05:39:06.491Z,95.96
2022-09-01T05:42:11.208Z,96.09
2022-09-01T05:45:23.372Z,100.00
2022-09-01T05:48:32.969Z,98.47
2022-09-01T05:51:46.322Z,99.18
2022-09-01T05:54:53.901Z,100.00
2022-09-01T05:57:57.300Z,100.00
2022-09-01T06:01:02.232Z,100.00
2022-09-01T06:04:06.509Z,100.00
2022-09-01T06:07:16.318Z,99.28
2022-09-01T06:10:20.596Z,97.92
2022-09-01T06:13:27.433Z,99.35
2022-09-01T06:16:31.171Z,98.38
2022-09-01T06:23:20.725Z,96.86
2022-09-01T06:26:32.163Z,96.68
2022-09-01T06:29:35.344Z,92.60
2022-09-01T06:32:43.884Z,96.70
2022-09-01T06:35:48.359Z,91.33
2022-09-01T06:38:55.403Z,96.91
2022-09-01T06:41:59.146Z,90.02
2022-09-01T06:45:02.378Z,89.66
2022-09-01T06:48:05.709Z,89.85
2022-09-01T06:51:16.941Z,91.25
2022-09-01T06:54:21.849Z,89.21
2022-09-01T07:00:51.816Z,88.81
2022-09-01T07:03:59.513Z,91.71
2022-09-01T07:07:54.052Z,89.01
2022-09-01T07:14:15.881Z,87.92
2022-09-01T07:17:35.354Z,88.70
2022-09-01T07:21:36.169Z,91.47
2022-09-01T07:24:18.958Z,88.87
2022-09-01T07:27:49.083Z,93.42
2022-09-01T07:30:55.682Z,89.32
2022-09-01T07:44:20.626Z,88.14
2022-09-01T07:47:53.113Z,86.40
2022-09-01T07:51:35.711Z,89.42
2022-09-01T07:54:34.642Z,89.05
2022-09-01T07:57:45.928Z,83.50
2022-09-01T08:00:57.296Z,82.40
2022-09-01T08:04:02.301Z,82.44
2022-09-01T08:07:16.376Z,84.09
2022-09-01T08:10:25.360Z,82.30
2022-09-01T08:13:52.505Z,83.08
2022-09-01T08:16:56.242Z,82.11
2022-09-01T08:20:02.093Z,82.96
2022-09-01T08:23:08.693Z,83.70
2022-09-01T08:26:15.989Z,83.37
2022-09-01T08:29:19.022Z,84.41
2022-09-01T08:32:22.989Z,76.55
2022-09-01T08:35:27.001Z,76.21
2022-09-01T08:38:30.848Z,79.58
2022-09-01T08:41:52.610Z,78.87
2022-09-01T08:45:02.791Z,77.79
2022-09-01T08:52:25.547Z,79.10
2022-09-01T08:55:38.533Z,77.53
2022-09-01T08:58:44.090Z,77.99
2022-09-01T09:02:01.887Z,75.11
2022-09-01T09:05:40.193Z,73.81
2022-09-01T09:08:49.394Z,73.67
2022-09-01T09:12:01.148Z,75.44
2022-09-01T09:15:45.825Z,76.66
2022-09-01T09:19:20.229Z,70.90
2022-09-01T09:22:23.101Z,69.56
2022-09-01T09:25:34.771Z,73.26
2022-09-01T09:28:43.083Z,71.46
2022-09-01T09:31:50.524Z,67.46
2022-09-01T09:34:54.210Z,63.24
2022-09-01T09:38:19.808Z,65.02
2022-09-01T09:41:27.278Z,63.63
2022-09-01T09:44:33.258Z,64.82
2022-09-01T09:47:44.919Z,63.86
2022-09-01T09:50:47.847Z,63.37
2022-09-01T09:53:54.321Z,64.29
2022-09-01T09:57:06.653Z,62.54
2022-09-01T10:00:36.774Z,61.20
2022-09-01T10:03:49.245Z,65.27
2022-09-01T10:06:54.755Z,62.26
2022-09-01T10:10:00.766Z,59.51
2022-09-01T10:13:04.736Z,59.76
2022-09-01T10:16:27.713Z,56.90
2022-09-01T10:19:35.949Z,60.17
2022-09-01T10:22:40.253Z,61.23
2022-09-01T10:25:44.496Z,59.00
2022-09-01T10:29:12.131Z,59.91
2022-09-01T10:32:38.251Z,58.70
2022-09-01T10:39:14.457Z,56.07
2022-09-01T10:42:19.413Z,54.75
2022-09-01T10:45:38.804Z,54.61
2022-09-01T10:48:56.009Z,52.14
2022-09-01T10:52:05.826Z,46.95
2022-09-01T10:55:34.400Z,46.77
2022-09-01T11:02:28.526Z,47.65
2022-09-01T11:06:12.017Z,45.91
2022-09-01T11:09:22.210Z,47.33
2022-09-01T11:12:42.028Z,46.73
2022-09-01T11:15:45.742Z,44.83
2022-09-01T11:18:50.648Z,46.43
2022-09-01T11:22:22.530Z,47.35
2022-09-01T11:25:41.070Z,45.70
2022-09-01T11:28:44.773Z,44.19
2022-09-01T11:31:48.222Z,41.23
2022-09-01T11:34:55.646Z,40.71
2022-09-01T11:38:07.466Z,40.00
2022-09-01T11:41:34.108Z,38.21
2022-09-01T11:44:41.050Z,37.95
2022-09-01T11:47:52.871Z,37.76
2022-09-01T11:51:02.185Z,36.69
2022-09-01T11:54:06.170Z,36.32
2022-09-01T11:57:34.624Z,35.25
2022-09-01T12:00:40.560Z,36.16
2022-09-01T12:03:44.222Z,34.77
2022-09-01T12:07:41.879Z,34.28
2022-09-01T12:10:48.090Z,34.67
2022-09-01T12:14:08.898Z,31.77
2022-09-01T12:17:21.207Z,33.20
2022-09-01T12:20:31.020Z,33.91
2022-09-01T12:23:43.413Z,34.39
2022-09-01T12:26:48.496Z,34.71
2022-09-01T12:29:52.340Z,35.14
2022-09-01T12:36:24.097Z,35.42
2022-09-01T12:40:00.335Z,35.01
2022-09-01T12:43:03.404Z,36.01
2022-09-01T12:46:10.882Z,36.84
2022-09-01T12:49:28.440Z,35.99
2022-09-01T12:52:34.501Z,35.88
2022-09-01T12:55:52.815Z,34.35
2022-09-01T12:59:17.266Z,34.91
2022-09-01T13:02:37.819Z,35.94
2022-09-01T13:05:51.983Z,35.02
2022-09-01T13:08:56.600Z,34.91
2022-09-01T13:12:20.936Z,35.43
2022-09-01T13:15:25.670Z,34.89
2022-09-01T13:18:28.893Z,35.75
2022-09-01T13:21:33.853Z,34.20
2022-09-01T13:24:36.550Z,34.82
2022-09-01T13:27:44.281Z,34.48
2022-09-01T13:31:28.731Z,35.50
2022-09-01T13:34:20.306Z,33.94
2022-09-01T13:37:26.497Z,34.55
2022-09-01T13:40:31.089Z,34.06
2022-09-01T13:43:35.019Z,35.12
2022-09-01T13:46:59.065Z,35.60
2022-09-01T13:50:11.191Z,34.91
2022-09-01T13:53:18.185Z,35.94
2022-09-01T13:56:20.999Z,33.41
2022-09-01T13:59:24.238Z,33.93
2022-09-01T14:02:26.928Z,34.97
2022-09-01T14:05:32.835Z,35.82
2022-09-01T14:08:35.364Z,33.71
2022-09-01T14:11:40.217Z,34.53
2022-09-01T14:18:09.589Z,34.17
2022-09-01T14:21:16.733Z,35.00
2022-09-01T14:24:22.084Z,33.25
2022-09-01T14:27:26.187Z,35.03
2022-09-01T14:30:35.998Z,35.65
2022-09-01T14:33:41.331Z,34.85
2022-09-01T14:36:46.772Z,33.88
2022-09-01T14:39:58.958Z,34.50
2022-09-01T14:43:15.687Z,34.10
2022-09-01T14:46:51.430Z,35.11
2022-09-01T14:49:55.912Z,33.61
2022-09-01T14:53:03.036Z,34.11
2022-09-01T14:56:06.253Z,35.68
2022-09-01T14:59:09.554Z,35.03
2022-09-01T15:02:12.447Z,34.51
2022-09-01T15:05:15.180Z,33.97
2022-09-01T15:08:18.733Z,33.90
2022-09-01T15:11:21.647Z,34.11
2022-09-01T15:14:25.719Z,34.57
2022-09-01T15:17:57.030Z,34.53
2022-09-01T15:21:03.434Z,34.82
2022-09-01T15:24:10.052Z,34.33
2022-09-01T15:31:51.571Z,36.29
2022-09-01T15:39:57.811Z,35.27
2022-09-01T15:43:17.383Z,34.74
2022-09-01T15:47:08.226Z,35.35
2022-09-01T15:50:19.374Z,35.95
2022-09-01T15:53:24.331Z,37.69
2022-09-01T15:56:28.354Z,35.81
2022-09-01T16:00:23.713Z,36.60
2022-09-01T16:03:32.032Z,36.32
2022-09-01T16:07:49.327Z,35.41
2022-09-01T16:11:07.448Z,35.57
2022-09-01T16:23:56.035Z,34.75
2022-09-01T16:27:02.191Z,36.13
2022-09-01T16:30:12.080Z,37.45
2022-09-01T16:33:20.307Z,36.45
2022-09-01T16:36:26.426Z,37.06
2022-09-01T16:57:34.884Z,37.85
2022-09-01T17:00:47.059Z,39.81
2022-09-01T17:04:07.054Z,41.20
2022-09-01T17:07:42.112Z,40.96
2022-09-01T17:11:10.971Z,40.49
2022-09-01T17:14:27.737Z,41.20
2022-09-01T17:17:43.818Z,41.58
2022-09-01T17:20:55.617Z,42.98
2022-09-01T17:24:12.398Z,42.75
2022-09-01T17:27:37.741Z,41.49
2022-09-01T18:08:38.539Z,47.76
2022-09-01T18:12:33.859Z,48.83
2022-09-01T18:15:53.071Z,48.42
2022-09-01T18:19:06.648Z,50.31
2022-09-01T18:22:15.003Z,46.88
2022-09-01T18:25:39.955Z,48.20
2022-09-01T18:28:44.322Z,48.13
2022-09-01T18:32:11.325Z,48.43
2022-09-01T18:35:45.177Z,48.97
2022-09-01T18:38:48.168Z,50.23
2022-09-01T18:41:59.521Z,51.74
2022-09-01T18:45:34.739Z,50.02
2022-09-01T18:48:42.398Z,50.58
2022-09-01T18:52:25.067Z,49.35
2022-09-01T18:55:54.127Z,51.14
2022-09-01T18:58:56.991Z,51.08
2022-09-01T19:02:04.090Z,54.13
2022-09-01T19:05:20.997Z,53.89
2022-09-01T19:08:32.486Z,54.82
2022-09-01T19:11:53.735Z,54.36
2022-09-01T19:15:15.242Z,55.94
2022-09-01T19:18:53.971Z,57.25
2022-09-01T19:21:56.753Z,57.60
2022-09-01T19:25:24.721Z,56.62
2022-09-01T19:28:43.126Z,57.68
2022-09-01T19:31:53.347Z,58.91
2022-09-01T19:34:59.413Z,55.68
2022-09-01T19:38:05.109Z,57.10
2022-09-01T19:41:20.018Z,56.91
2022-09-01T19:44:46.737Z,57.58
2022-09-01T19:48:14.192Z,56.41
2022-09-01T19:51:25.042Z,56.95
2022-09-01T19:55:00.967Z,56.53
2022-09-01T19:58:08.895Z,56.26
2022-09-01T20:01:16.344Z,56.55
2022-09-01T20:04:59.951Z,56.71
2022-09-01T20:08:09.147Z,55.13
2022-09-01T20:11:49.983Z,55.09
2022-09-01T20:15:02.785Z,55.15
2022-09-01T20:18:16.683Z,55.48
2022-09-01T20:21:22.297Z,55.13
2022-09-01T20:24:39.070Z,54.29
2022-09-01T20:28:12.072Z,55.51
2022-09-01T20:31:25.577Z,57.05
2022-09-01T20:34:52.957Z,56.98
2022-09-01T20:38:06.568Z,56.95
2022-09-01T20:41:20.729Z,56.72
2022-09-01T20:45:26.353Z,56.90
2022-09-01T20:48:39.750Z,56.63
2022-09-01T20:51:58.215Z,58.05
2022-09-01T20:55:42.143Z,57.81
2022-09-01T20:59:38.299Z,56.79
2022-09-01T21:03:02.596Z,56.82
2022-09-01T21:06:19.744Z,56.02
2022-09-01T21:09:45.367Z,55.59
2022-09-01T21:14:14.233Z,57.79
2022-09-01T21:18:20.028Z,59.03
2022-09-01T21:21:44.963Z,58.95
2022-09-01T21:24:48.020Z,58.43
2022-09-01T21:27:56.451Z,56.62
2022-09-01T21:31:00.424Z,57.92
2022-09-01T21:34:03.436Z,56.44
2022-09-01T21:37:06.820Z,56.22
2022-09-01T21:40:11.291Z,56.04
2022-09-01T21:43:50.327Z,57.61
2022-09-01T21:47:15.142Z,58.25
2022-09-01T21:50:40.637Z,57.64
2022-09-01T21:53:43.633Z,58.06
2022-09-01T21:56:47.305Z,57.98
2022-09-01T21:59:51.633Z,57.40
2022-09-01T22:02:57.648Z,57.59
2022-09-01T22:06:01.194Z,57.46
2022-09-01T22:09:09.292Z,56.12
2022-09-01T22:12:54.446Z,55.98
2022-09-01T22:15:57.019Z,55.09
2022-09-01T22:19:02.621Z,55.07
2022-09-01T22:22:05.675Z,55.35
2022-09-01T22:25:12.177Z,55.72
2022-09-01T22:28:18.568Z,55.49
2022-09-01T22:31:22.324Z,54.98
2022-09-01T22:34:55.663Z,55.65
2022-09-01T22:37:58.892Z,53.69
2022-09-01T22:41:02.608Z,54.16
2022-09-01T22:44:05.994Z,53.07
2022-09-01T22:47:08.635Z,53.60
2022-09-01T22:50:12.500Z,53.23
2022-09-01T22:53:17.255Z,54.28
2022-09-01T22:56:28.390Z,53.25
2022-09-01T22:59:40.006Z,52.01
2022-09-01T23:02:42.977Z,53.06
2022-09-01T23:05:46.068Z,52.41
2022-09-01T23:08:49.658Z,51.88
2022-09-01T23:11:52.639Z,51.08
2022-09-01T23:14:56.776Z,50.87
2022-09-01T23:17:59.888Z,50.81
2022-09-01T23:21:04.368Z,51.13
2022-09-01T23:24:07.333Z,52.02
2022-09-01T23:27:12.382Z,51.91
2022-09-01T23:30:15.818Z,51.84
2022-09-01T23:33:21.172Z,53.02
2022-09-01T23:36:26.398Z,52.79
2022-09-01T23:39:30.747Z,52.20
2022-09-01T23:42:34.173Z,52.45
2022-09-01T23:45:45.296Z,54.58
2022-09-01T23:48:48.397Z,51.80
2022-09-01T23:51:53.572Z,51.96
2022-09-01T23:54:57.157Z,53.40
2022-09-01T23:58:00.272Z,53.37
